createdAt,value
2022-09-14T00:04:28.788Z,9.30
2022-09-14T00:10:30.589Z,8.93
2022-09-14T00:16:32.903Z,9.27
2022-09-14T00:22:34.387Z,9.20
2022-09-14T00:28:37.087Z,9.45
2022-09-14T00:34:38.580Z,8.57
2022-09-14T00:40:39.974Z,9.07
2022-09-14T00:46:42.502Z,8.77
2022-09-14T00:52:45.644Z,8.87
2022-09-14T00:58:49.302Z,8.30
2022-09-14T01:04:51.431Z,8.87
2022-09-14T01:11:09.179Z,8.60
2022-09-14T01:17:29.272Z,8.15
2022-09-14T01:23:37.782Z,7.40
2022-09-14T01:29:45.571Z,6.70
2022-09-14T01:35:50.975Z,6.23
2022-09-14T01:41:54.140Z,5.63
2022-09-14T01:47:58.276Z,5.82
2022-09-14T01:54:03.507Z,5.40
2022-09-14T02:00:07.375Z,5.65
2022-09-14T02:06:15.934Z,5.77
2022-09-14T02:12:17.606Z,5.50
2022-09-14T02:18:19.475Z,5.80
2022-09-14T02:24:20.965Z,5.20
2022-09-14T02:30:22.544Z,5.05
2022-09-14T02:36:42.633Z,5.13
2022-09-14T02:42:44.025Z,4.90
2022-09-14T02:48:50.605Z,5.47
2022-09-14T02:55:07.764Z,5.17
2022-09-14T03:01:11.551Z,4.57
2022-09-14T03:07:13.008Z,4.27
2022-09-14T03:13:14.440Z,4.50
2022-09-14T03:19:15.862Z,3.95
2022-09-14T03:25:19.198Z,4.30
2022-09-14T03:31:21.192Z,4.00
2022-09-14T03:37:22.716Z,3.83
2022-09-14T03:43:24.343Z,3.90
2022-09-14T03:49:25.762Z,3.38
2022-09-14T03:55:27.190Z,3.10
2022-09-14T04:01:28.645Z,3.10
2022-09-14T04:07:30.151Z,2.97
2022-09-14T04:13:31.576Z,2.65
2022-09-14T04:19:34.218Z,3.55
2022-09-14T04:25:35.773Z,3.43
2022-09-14T04:31:37.297Z,3.53
2022-09-14T04:37:38.787Z,3.27
2022-09-14T04:43:40.228Z,3.15
2022-09-14T04:49:41.710Z,2.90
2022-09-14T04:55:43.139Z,3.10
2022-09-14T05:01:45.575Z,3.20
2022-09-14T05:07:47.121Z,3.43
2022-09-14T05:13:50.153Z,2.88
2022-09-14T05:19:51.841Z,3.78
2022-09-14T05:25:53.498Z,2.90
2022-09-14T05:31:55.200Z,3.28
2022-09-14T05:37:56.652Z,3.20
2022-09-14T05:43:58.776Z,3.47
2022-09-14T05:50:00.212Z,3.47
2022-09-14T05:56:02.537Z,3.00
2022-09-14T06:02:04.348Z,3.20
2022-09-14T06:08:05.908Z,2.90
2022-09-14T06:14:07.453Z,2.90
2022-09-14T06:20:09.054Z,2.90
2022-09-14T06:26:11.107Z,2.83
2022-09-14T06:32:13.152Z,2.10
2022-09-14T06:38:14.930Z,2.20
2022-09-14T06:44:16.337Z,2.05
2022-09-14T06:50:17.815Z,2.08
2022-09-14T06:56:19.735Z,2.30
2022-09-14T07:02:21.228Z,2.20
2022-09-14T07:08:22.699Z,1.70
2022-09-14T07:14:24.240Z,2.22
2022-09-14T07:20:25.744Z,2.10
2022-09-14T07:26:28.693Z,2.23
2022-09-14T07:32:30.600Z,2.50
2022-09-14T07:38:50.993Z,3.20
2022-09-14T07:44:53.422Z,2.78
2022-09-14T07:51:05.227Z,2.55
2022-09-14T07:57:06.684Z,2.40
2022-09-14T08:03:08.661Z,2.50
2022-09-14T08:09:10.132Z,2.50
2022-09-14T08:15:11.591Z,2.70
2022-09-14T08:21:14.496Z,2.42
2022-09-14T08:27:17.337Z,2.50
2022-09-14T08:33:18.867Z,2.00
2022-09-14T08:39:20.270Z,2.10
2022-09-14T08:45:22.982Z,1.80
2022-09-14T08:51:24.614Z,2.20
2022-09-14T08:57:28.632Z,2.50
2022-09-14T09:03:41.621Z,2.50
2022-09-14T09:09:45.272Z,2.30
2022-09-14T09:15:51.445Z,2.10
2022-09-14T09:21:53.179Z,2.40
2022-09-14T09:27:55.576Z,2.13
2022-09-14T09:33:57.088Z,2.17
2022-09-14T09:40:00.033Z,1.80
2022-09-14T09:46:04.007Z,1.70
2022-09-14T09:52:10.033Z,2.00
2022-09-14T09:58:32.225Z,1.50
2022-09-14T10:04:35.212Z,1.63
2022-09-14T10:10:39.177Z,1.60
2022-09-14T10:16:41.678Z,1.83
2022-09-14T10:22:43.231Z,1.27
2022-09-14T10:28:46.040Z,1.47
2022-09-14T10:34:47.603Z,1.45
2022-09-14T10:40:53.005Z,1.40
2022-09-14T10:47:04.895Z,1.17
2022-09-14T10:53:19.779Z,1.50
2022-09-14T10:59:41.672Z,1.77
2022-09-14T11:06:00.307Z,2.28
2022-09-14T11:12:07.828Z,2.30
2022-09-14T11:18:17.762Z,2.80
2022-09-14T11:24:25.450Z,2.40
2022-09-14T11:30:32.847Z,2.80
2022-09-14T11:36:37.296Z,2.97
2022-09-14T11:42:49.069Z,2.30
2022-09-14T11:49:09.068Z,2.13
2022-09-14T11:55:16.075Z,2.33
2022-09-14T12:01:31.555Z,2.57
2022-09-14T12:07:35.923Z,2.67
2022-09-14T12:13:37.466Z,2.70
2022-09-14T12:19:39.302Z,2.83
2022-09-14T12:25:52.913Z,3.22
2022-09-14T12:31:54.319Z,3.00
2022-09-14T12:37:55.763Z,2.65
2022-09-14T12:43:57.301Z,2.47
2022-09-14T12:50:04.830Z,2.70
2022-09-14T12:56:12.073Z,2.78
2022-09-14T13:02:32.395Z,2.87
2022-09-14T13:08:36.961Z,2.95
2022-09-14T13:14:49.163Z,3.10
2022-09-14T13:20:51.827Z,3.42
2022-09-14T13:26:54.909Z,3.17
2022-09-14T13:32:57.284Z,3.27
2022-09-14T13:39:01.975Z,3.40
2022-09-14T13:45:04.999Z,3.77
2022-09-14T13:51:06.843Z,3.90
2022-09-14T13:57:13.092Z,3.42
2022-09-14T14:03:24.330Z,3.50
2022-09-14T14:09:37.295Z,3.40
2022-09-14T14:15:41.029Z,3.27
2022-09-14T14:21:42.503Z,3.40
2022-09-14T14:27:45.995Z,3.42
2022-09-14T14:33:48.355Z,3.20
2022-09-14T14:39:49.969Z,3.83
2022-09-14T14:45:54.060Z,3.83
2022-09-14T14:51:55.510Z,3.55
2022-09-14T14:58:01.023Z,3.55
2022-09-14T15:04:02.544Z,3.60
2022-09-14T15:10:04.348Z,3.03
2022-09-14T15:16:05.945Z,3.50
2022-09-14T15:22:08.829Z,3.65
2022-09-14T15:28:10.262Z,3.03
2022-09-14T15:34:11.882Z,3.00
2022-09-14T15:40:13.497Z,3.25
2022-09-14T15:46:15.028Z,2.93
2022-09-14T15:52:16.464Z,3.28
2022-09-14T15:58:17.917Z,3.53
2022-09-14T16:04:19.690Z,3.20
2022-09-14T16:10:21.632Z,3.20
2022-09-14T16:16:23.402Z,3.80
2022-09-14T16:22:25.223Z,4.03
2022-09-14T16:28:27.005Z,3.47
2022-09-14T16:34:29.440Z,3.83
2022-09-14T16:40:31.956Z,4.00
2022-09-14T16:46:33.952Z,3.90
2022-09-14T16:52:35.384Z,3.70
2022-09-14T16:58:37.532Z,3.22
2022-09-14T17:04:39.061Z,3.10
2022-09-14T17:10:40.528Z,3.22
2022-09-14T17:16:42.164Z,3.43
2022-09-14T17:22:43.631Z,3.67
2022-09-14T17:28:47.192Z,3.38
2022-09-14T17:34:48.763Z,3.13
2022-09-14T17:40:50.342Z,3.28
2022-09-14T17:46:53.292Z,3.33
2022-09-14T17:52:54.932Z,3.20
2022-09-14T17:59:07.111Z,3.63
2022-09-14T18:05:09.034Z,3.90
2022-09-14T18:11:11.667Z,4.22
2022-09-14T18:17:13.232Z,3.80
2022-09-14T18:23:15.714Z,3.90
2022-09-14T18:29:18.460Z,3.95
2022-09-14T18:35:19.976Z,3.80
2022-09-14T18:41:21.473Z,3.83
2022-09-14T18:47:22.966Z,3.67
2022-09-14T18:53:24.486Z,10.27
2022-09-14T18:59:26.635Z,4.50
2022-09-14T19:05:29.966Z,4.13
2022-09-14T19:11:31.744Z,4.00
2022-09-14T19:17:33.403Z,3.70
2022-09-14T19:23:35.442Z,3.38
2022-09-14T19:29:36.891Z,3.55
2022-09-14T19:35:38.417Z,3.40
2022-09-14T19:41:40.141Z,4.00
2022-09-14T19:47:41.745Z,4.17
2022-09-14T19:53:44.077Z,4.20
2022-09-14T19:59:45.583Z,4.68
2022-09-14T20:05:47.040Z,4.50
2022-09-14T20:11:49.272Z,4.55
2022-09-14T20:17:53.152Z,3.90
2022-09-14T20:24:15.289Z,4.03
2022-09-14T20:30:18.591Z,4.47
2022-09-14T20:36:21.364Z,5.07
2022-09-14T20:42:22.837Z,4.70
2022-09-14T20:48:24.323Z,4.93
2022-09-14T20:54:25.858Z,4.00
2022-09-14T21:00:27.313Z,4.07
2022-09-14T21:06:28.792Z,4.00
2022-09-14T21:12:30.262Z,4.45
2022-09-14T21:18:31.897Z,5.00
2022-09-14T21:24:35.030Z,5.13
2022-09-14T21:30:38.507Z,5.70
2022-09-14T21:36:42.144Z,7.80
2022-09-14T21:42:44.852Z,9.02
2022-09-14T21:48:46.432Z,8.53
2022-09-14T21:54:47.833Z,7.68
2022-09-14T22:00:55.234Z,8.15
2022-09-14T22:06:57.200Z,7.67
2022-09-14T22:12:58.577Z,8.07
2022-09-14T22:19:01.132Z,7.00
2022-09-14T22:25:02.666Z,6.43
2022-09-14T22:31:04.153Z,6.90
2022-09-14T22:37:05.665Z,7.43
2022-09-14T22:43:07.052Z,6.72
2022-09-14T22:49:09.122Z,6.67
2022-09-14T22:55:11.105Z,6.47
2022-09-14T23:01:19.143Z,6.65
2022-09-14T23:07:20.547Z,7.33
2022-09-14T23:13:22.288Z,6.22
2022-09-14T23:19:23.765Z,6.40
2022-09-14T23:25:25.161Z,6.60
2022-09-14T23:31:27.814Z,6.57
2022-09-14T23:37:29.885Z,7.30
2022-09-14T23:43:31.334Z,8.00
2022-09-14T23:49:32.682Z,8.17
2022-09-14T23:55:34.112Z,9.30
